Time;durP1;ratioP1;P1;durP2;ratioP2;P2;SDS_P1;SDS_P2;PMS_P1;PMS_P2;Temp;Humidity;BMP_temperature;BMP_pressure;BME280_temperature;BME280_humidity;BME280_pressure;Samples;Min_cycle;Max_cycle;Signal;HPM_P1;HPM_P2
2023/04/27 00:00:28;;;;;;;10.65;5.63;;;;;;;;;;5000452;28;20030;-91
2023/04/27 00:02:54;;;;;;;14.48;6.00;;;;;;;;;;5000575;28;20492;-92
2023/04/27 00:05:58;;;;;;;9.38;6.18;;;;;;;;;;5000147;28;20033;-91
2023/04/27 00:08:24;;;;;;;9.02;5.20;;;;;;;;;;4983261;28;20062;-89
2023/04/27 00:10:50;;;;;;;11.48;6.18;;;;;;;;;;4967464;28;20045;-91
2023/04/27 00:13:16;;;;;;;10.13;6.40;;;;;;;;;;4979675;28;20031;-90
2023/04/27 00:15:44;;;;;;;9.05;5.20;;;;;;;;;;4981162;28;20316;-90
2023/04/27 00:18:10;;;;;;;11.05;5.05;;;;;;;;;;4979840;28;20027;-90
2023/04/27 00:20:36;;;;;;;8.45;4.72;;;;;;;;;;4979563;28;20085;-90
2023/04/27 00:23:02;;;;;;;11.27;5.43;;;;;;;;;;4979678;28;20031;-90
2023/04/27 00:25:28;;;;;;;11.48;5.75;;;;;;;;;;4979860;28;20373;-90
2023/04/27 00:27:54;;;;;;;10.23;5.55;;;;;;;;;;4979343;28;20133;-91
2023/04/27 00:30:20;;;;;;;10.02;5.68;;;;;;;;;;4992933;28;20344;-90
2023/04/27 00:32:46;;;;;;;8.07;5.55;;;;;;;;;;5000303;28;20397;-91
2023/04/27 00:35:12;;;;;;;10.13;5.72;;;;;;;;;;4983037;28;20034;-91
2023/04/27 00:37:38;;;;;;;10.45;5.43;;;;;;;;;;5000174;28;20030;-90
2023/04/27 00:40:08;;;;;;;11.93;5.95;;;;;;;;;;4982861;28;20027;-89
2023/04/27 00:42:35;;;;;;;8.40;5.25;;;;;;;;;;4982749;28;20421;-91
2023/04/27 00:45:01;;;;;;;9.15;5.13;;;;;;;;;;4982343;28;20026;-91
2023/04/27 00:47:28;;;;;;;9.18;5.57;;;;;;;;;;4999277;28;20031;-91
2023/04/27 00:53:11;;;;;;;10.07;5.53;;;;;;;;;;4980376;28;20073;-90
2023/04/27 00:55:37;;;;;;;6.72;5.10;;;;;;;;;;4980484;28;20439;-90
2023/04/27 00:58:03;;;;;;;7.07;5.20;;;;;;;;;;4979997;28;20091;-91
2023/04/27 01:00:29;;;;;;;9.50;4.85;;;;;;;;;;4980422;28;20039;-90
2023/04/27 01:02:55;;;;;;;8.98;5.20;;;;;;;;;;4980356;28;20054;-91
2023/04/27 01:05:42;;;;;;;9.77;5.50;;;;;;;;;;4980005;28;20038;-92
2023/04/27 01:08:08;;;;;;;7.90;5.18;;;;;;;;;;4979937;28;20031;-92
2023/04/27 01:10:34;;;;;;;12.73;5.60;;;;;;;;;;4979748;28;20023;-90
2023/04/27 01:13:00;;;;;;;9.57;5.68;;;;;;;;;;4980059;28;20038;-92
2023/04/27 01:15:27;;;;;;;10.13;5.80;;;;;;;;;;4978895;28;20058;-91
2023/04/27 01:17:57;;;;;;;9.02;5.20;;;;;;;;;;4980162;28;20023;-91
2023/04/27 01:20:23;;;;;;;8.95;4.97;;;;;;;;;;4978633;28;20033;-91
2023/04/27 01:22:50;;;;;;;8.65;5.13;;;;;;;;;;4979967;28;20118;-92
2023/04/27 01:25:16;;;;;;;9.73;5.70;;;;;;;;;;4979809;28;20049;-90
2023/04/27 01:27:43;;;;;;;8.98;5.40;;;;;;;;;;4979148;28;20050;-91
2023/04/27 01:30:09;;;;;;;8.25;5.22;;;;;;;;;;4978809;28;20030;-91
2023/04/27 01:32:37;;;;;;;7.82;5.35;;;;;;;;;;4978255;28;20062;-89
2023/04/27 01:35:03;;;;;;;11.30;5.53;;;;;;;;;;4978566;28;20069;-90
2023/04/27 01:37:30;;;;;;;8.65;5.05;;;;;;;;;;4978211;28;20042;-90
2023/04/27 01:39:56;;;;;;;7.57;5.30;;;;;;;;;;4979534;28;20054;-89
2023/04/27 01:42:22;;;;;;;12.90;5.95;;;;;;;;;;4980463;28;20027;-89
2023/04/27 01:44:49;;;;;;;12.55;5.40;;;;;;;;;;4979387;28;20332;-90
2023/04/27 01:47:16;;;;;;;7.75;4.63;;;;;;;;;;4979640;28;20038;-92
2023/04/27 01:49:48;;;;;;;7.60;5.28;;;;;;;;;;4979152;28;20057;-91
2023/04/27 01:52:14;;;;;;;9.80;5.55;;;;;;;;;;4979057;28;20027;-93
2023/04/27 01:54:40;;;;;;;8.75;5.85;;;;;;;;;;4979417;28;20031;-95
2023/04/27 01:57:06;;;;;;;9.30;5.00;;;;;;;;;;4978245;28;20030;-93
2023/04/27 01:59:32;;;;;;;12.50;5.60;;;;;;;;;;4978121;28;20138;-93
2023/04/27 02:01:58;;;;;;;7.78;5.45;;;;;;;;;;4979250;28;20045;-94
2023/04/27 02:04:24;;;;;;;9.63;4.90;;;;;;;;;;4977790;28;20035;-91
2023/04/27 02:07:22;;;;;;;8.00;4.97;;;;;;;;;;4978127;28;20031;-92
2023/04/27 02:09:48;;;;;;;11.10;5.55;;;;;;;;;;4978984;28;20050;-91
2023/04/27 02:12:14;;;;;;;8.02;4.85;;;;;;;;;;4978670;28;20037;-93
2023/04/27 02:14:40;;;;;;;9.20;5.32;;;;;;;;;;4978768;28;20034;-92
2023/04/27 02:17:06;;;;;;;8.93;4.97;;;;;;;;;;4978661;28;20027;-92
2023/04/27 02:19:32;;;;;;;9.55;5.20;;;;;;;;;;4977835;28;20030;-91
2023/04/27 02:21:58;;;;;;;7.80;5.10;;;;;;;;;;4978869;28;20414;-92
2023/04/27 02:24:24;;;;;;;9.98;5.82;;;;;;;;;;4977773;28;20474;-92
2023/04/27 02:26:50;;;;;;;8.02;5.20;;;;;;;;;;4994417;28;20031;-93
2023/04/27 02:29:17;;;;;;;12.07;5.40;;;;;;;;;;4980816;28;20078;-92
2023/04/27 02:31:43;;;;;;;10.73;5.47;;;;;;;;;;4998281;28;20027;-91
2023/04/27 02:34:09;;;;;;;7.85;5.18;;;;;;;;;;4998293;28;20102;-95
2023/04/27 02:36:36;;;;;;;7.50;5.03;;;;;;;;;;4998067;28;20074;-93
2023/04/27 02:39:04;;;;;;;13.30;7.57;;;;;;;;;;4998276;28;20053;-94
2023/04/27 02:41:33;;;;;;;9.48;7.65;;;;;;;;;;4997668;28;20433;-91
2023/04/27 02:43:59;;;;;;;9.48;6.00;;;;;;;;;;4998013;28;20328;-91
2023/04/27 02:46:26;;;;;;;10.13;5.45;;;;;;;;;;4997845;28;20030;-91
2023/04/27 02:48:52;;;;;;;11.80;5.47;;;;;;;;;;4980857;28;20409;-91
2023/04/27 02:51:18;;;;;;;11.55;5.43;;;;;;;;;;4998265;28;20029;-91
2023/04/27 02:53:44;;;;;;;9.98;5.55;;;;;;;;;;4999625;28;20014;-91
2023/04/27 02:56:10;;;;;;;10.05;5.70;;;;;;;;;;4984495;28;20030;-91
2023/04/27 02:58:36;;;;;;;8.90;5.07;;;;;;;;;;5001658;28;20041;-92
2023/04/27 03:01:02;;;;;;;10.75;5.32;;;;;;;;;;5001957;28;20030;-91
2023/04/27 03:03:28;;;;;;;8.82;5.20;;;;;;;;;;4984388;28;20037;-91
2023/04/27 03:05:54;;;;;;;8.13;4.75;;;;;;;;;;4986480;28;20027;-90
2023/04/27 03:08:20;;;;;;;11.85;5.70;;;;;;;;;;4981124;28;20074;-91
2023/04/27 03:10:46;;;;;;;14.68;5.30;;;;;;;;;;4981134;28;20026;-91
2023/04/27 03:13:14;;;;;;;9.85;5.80;;;;;;;;;;4981018;28;20058;-92
2023/04/27 03:15:40;;;;;;;11.02;5.43;;;;;;;;;;4982175;28;20403;-91
2023/04/27 03:18:06;;;;;;;9.57;5.68;;;;;;;;;;4981340;28;20034;-91
2023/04/27 03:23:36;;;;;;;9.18;6.43;;;;;;;;;;4982027;28;20058;-95
2023/04/27 03:26:06;;;;;;;9.25;5.95;;;;;;;;;;4962134;29;20039;-95
2023/04/27 03:28:32;;;;;;;12.40;5.60;;;;;;;;;;4962215;29;20459;-90
2023/04/27 03:30:58;;;;;;;10.07;5.65;;;;;;;;;;4963514;28;20027;-90
2023/04/27 03:33:25;;;;;;;11.75;6.18;;;;;;;;;;4981785;28;20037;-91
2023/04/27 03:35:58;;;;;;;9.48;6.10;;;;;;;;;;4981990;28;20019;-91
2023/04/27 03:38:24;;;;;;;;;;;;;;;;;;4961468;29;20047;-93
2023/04/27 03:40:50;;;;;;;9.63;5.35;;;;;;;;;;4962560;29;20377;-93
2023/04/27 03:43:17;;;;;;;10.32;5.50;;;;;;;;;;4962022;29;20418;-94
2023/04/27 03:45:44;;;;;;;9.07;5.47;;;;;;;;;;4962142;29;20447;-95
2023/04/27 03:48:10;;;;;;;10.57;6.05;;;;;;;;;;4962328;29;20039;-95
2023/04/27 03:50:36;;;;;;;12.00;5.55;;;;;;;;;;4962266;29;20310;-91
2023/04/27 03:53:02;;;;;;;10.73;5.75;;;;;;;;;;4945022;29;20071;-90
2023/04/27 03:55:29;;;;;;;9.13;5.90;;;;;;;;;;4961831;29;20117;-90
2023/04/27 03:57:55;;;;;;;12.02;6.47;;;;;;;;;;4997389;28;20034;-90
2023/04/27 04:00:21;;;;;;;10.18;5.97;;;;;;;;;;5000853;28;20038;-90
2023/04/27 04:02:47;;;;;;;10.45;6.57;;;;;;;;;;4976714;28;20440;-91
2023/04/27 04:05:14;;;;;;;10.77;6.43;;;;;;;;;;4981067;28;20299;-90
2023/04/27 04:07:40;;;;;;;8.52;5.18;;;;;;;;;;4981334;28;20058;-91
2023/04/27 04:10:07;;;;;;;10.15;5.65;;;;;;;;;;4981281;28;20313;-90
2023/04/27 04:12:33;;;;;;;10.13;5.70;;;;;;;;;;4980025;28;20027;-90
2023/04/27 04:14:59;;;;;;;10.80;5.78;;;;;;;;;;4980108;28;20051;-91
2023/04/27 04:17:25;;;;;;;12.48;6.45;;;;;;;;;;4981078;28;20417;-90
2023/04/27 04:19:51;;;;;;;10.98;5.75;;;;;;;;;;4979801;28;20035;-91
2023/04/27 04:25:21;;;;;;;10.30;5.97;;;;;;;;;;4981179;28;20029;-93
2023/04/27 04:27:47;;;;;;;9.30;5.68;;;;;;;;;;4976182;28;20047;-94
2023/04/27 04:30:13;;;;;;;13.52;5.70;;;;;;;;;;4970188;28;20121;-91
2023/04/27 04:32:40;;;;;;;11.70;5.82;;;;;;;;;;4980565;28;20022;-91
2023/04/27 04:35:06;;;;;;;10.00;5.78;;;;;;;;;;4979675;28;20074;-91
2023/04/27 04:37:36;;;;;;;10.13;5.80;;;;;;;;;;4966408;28;20031;-92
2023/04/27 04:40:09;;;;;;;11.18;5.50;;;;;;;;;;4961234;29;20027;-91
2023/04/27 04:42:38;;;;;;;9.65;5.78;;;;;;;;;;4960965;28;20066;-91
2023/04/27 04:45:05;;;;;;;10.63;5.90;;;;;;;;;;4961042;29;20422;-91
2023/04/27 04:47:33;;;;;;;9.80;5.80;;;;;;;;;;4960761;29;20031;-91
2023/04/27 04:49:59;;;;;;;20.48;5.93;;;;;;;;;;4961081;29;20031;-91
2023/04/27 04:52:27;;;;;;;12.60;5.93;;;;;;;;;;4965887;28;20070;-91
2023/04/27 04:54:53;;;;;;;12.98;5.82;;;;;;;;;;4979291;28;20062;-91
2023/04/27 04:57:19;;;;;;;9.40;5.53;;;;;;;;;;4979130;28;20423;-91
2023/04/27 04:59:45;;;;;;;12.68;6.18;;;;;;;;;;4980037;28;20037;-91
2023/04/27 05:02:11;;;;;;;14.35;6.78;;;;;;;;;;4979841;28;20031;-90
2023/04/27 05:04:37;;;;;;;12.70;6.75;;;;;;;;;;4980137;28;20035;-91
2023/04/27 05:07:05;;;;;;;11.57;6.43;;;;;;;;;;4979163;28;20027;-91
2023/04/27 05:09:31;;;;;;;11.88;7.65;;;;;;;;;;4980128;28;20030;-91
2023/04/27 05:11:57;;;;;;;14.18;7.57;;;;;;;;;;4978928;28;20027;-90
2023/04/27 05:14:23;;;;;;;17.33;8.32;;;;;;;;;;4980013;28;20027;-90
2023/04/27 05:16:50;;;;;;;13.20;6.85;;;;;;;;;;4979457;28;20035;-91
2023/04/27 05:19:17;;;;;;;12.75;6.20;;;;;;;;;;4979712;28;20026;-91
2023/04/27 05:21:44;;;;;;;13.15;7.22;;;;;;;;;;4978414;28;20086;-90
2023/04/27 05:24:11;;;;;;;9.73;5.97;;;;;;;;;;4978621;28;20027;-91
2023/04/27 05:26:37;;;;;;;11.32;6.50;;;;;;;;;;4979789;28;20034;-90
2023/04/27 05:29:04;;;;;;;10.52;6.82;;;;;;;;;;4978222;28;20130;-91
2023/04/27 05:31:30;;;;;;;11.38;6.63;;;;;;;;;;4978042;28;20031;-90
2023/04/27 05:33:56;;;;;;;11.38;6.57;;;;;;;;;;4978706;28;20326;-90
2023/04/27 05:36:22;;;;;;;11.75;6.13;;;;;;;;;;4962465;28;20436;-89
2023/04/27 05:38:48;;;;;;;11.40;6.28;;;;;;;;;;4959171;29;20035;-90
2023/04/27 05:41:14;;;;;;;14.52;6.55;;;;;;;;;;4960269;29;20062;-90
2023/04/27 05:43:40;;;;;;;14.10;7.00;;;;;;;;;;4960057;28;20027;-91
2023/04/27 05:46:06;;;;;;;14.52;7.38;;;;;;;;;;4960029;28;20105;-92
2023/04/27 05:48:32;;;;;;;10.82;6.60;;;;;;;;;;4959740;29;20453;-91
2023/04/27 05:54:15;;;;;;;13.27;6.43;;;;;;;;;;4979492;28;20369;-91
2023/04/27 05:56:42;;;;;;;11.90;6.57;;;;;;;;;;4978045;28;20118;-91
2023/04/27 05:59:08;;;;;;;13.07;7.28;;;;;;;;;;4979049;28;20122;-90
2023/04/27 06:01:34;;;;;;;11.52;7.38;;;;;;;;;;4979027;28;20041;-90
2023/04/27 06:04:01;;;;;;;10.43;7.10;;;;;;;;;;4979300;28;20106;-89
2023/04/27 06:06:27;;;;;;;12.75;7.57;;;;;;;;;;4978090;28;20058;-90
2023/04/27 06:08:53;;;;;;;10.60;7.43;;;;;;;;;;4979257;28;20086;-90
2023/04/27 06:11:19;;;;;;;16.52;7.65;;;;;;;;;;4978895;28;20030;-89
2023/04/27 06:13:46;;;;;;;9.30;6.63;;;;;;;;;;4977531;28;20037;-89
2023/04/27 06:16:12;;;;;;;9.98;6.97;;;;;;;;;;4973741;28;20019;-90
2023/04/27 06:18:39;;;;;;;9.43;6.65;;;;;;;;;;4959680;29;20035;-91
2023/04/27 06:24:22;;;;;;;13.98;6.30;;;;;;;;;;4960813;28;20030;-90
2023/04/27 06:26:49;;;;;;;10.73;6.93;;;;;;;;;;4959370;29;20035;-90
2023/04/27 06:29:15;;;;;;;11.57;6.78;;;;;;;;;;4960780;28;20166;-90
2023/04/27 06:31:41;;;;;;;9.20;6.60;;;;;;;;;;4962374;28;20035;-91
2023/04/27 06:34:07;;;;;;;10.65;6.63;;;;;;;;;;4963769;29;20050;-89
2023/04/27 06:36:33;;;;;;;12.70;6.70;;;;;;;;;;4964998;28;20019;-90
2023/04/27 06:38:59;;;;;;;9.50;7.03;;;;;;;;;;4943148;29;20027;-90
2023/04/27 06:41:26;;;;;;;13.65;7.18;;;;;;;;;;4959186;29;20030;-89
2023/04/27 06:43:52;;;;;;;11.95;7.05;;;;;;;;;;4944138;29;20078;-90
2023/04/27 06:46:19;;;;;;;15.50;6.85;;;;;;;;;;4959047;29;20040;-90
2023/04/27 06:48:45;;;;;;;10.30;7.10;;;;;;;;;;4943879;29;20046;-89
2023/04/27 06:54:28;;;;;;;13.35;6.85;;;;;;;;;;4963550;29;20086;-89
2023/04/27 06:56:55;;;;;;;12.38;6.75;;;;;;;;;;4964130;28;20111;-90
2023/04/27 06:59:21;;;;;;;9.70;6.72;;;;;;;;;;4973106;28;20482;-89
2023/04/27 07:01:47;;;;;;;14.48;6.95;;;;;;;;;;4962967;29;20038;-90
2023/04/27 07:04:13;;;;;;;10.35;5.40;;;;;;;;;;4962901;29;20019;-90
2023/04/27 07:06:39;;;;;;;10.77;6.35;;;;;;;;;;4961975;29;20041;-89
2023/04/27 07:09:05;;;;;;;10.20;5.70;;;;;;;;;;4961936;28;20031;-89
2023/04/27 07:11:31;;;;;;;10.90;5.18;;;;;;;;;;4963067;29;20027;-89
2023/04/27 07:13:57;;;;;;;11.85;5.15;;;;;;;;;;4962827;29;20346;-87
2023/04/27 07:16:23;;;;;;;9.88;5.28;;;;;;;;;;4961691;29;20043;-88
2023/04/27 07:18:50;;;;;;;12.13;5.35;;;;;;;;;;4962907;28;20031;-88
2023/04/27 07:21:16;;;;;;;9.20;5.18;;;;;;;;;;4962788;28;20031;-89
2023/04/27 07:23:42;;;;;;;10.93;5.47;;;;;;;;;;4962838;28;20023;-87
2023/04/27 07:26:08;;;;;;;11.43;5.90;;;;;;;;;;4962124;28;20027;-89
2023/04/27 07:28:35;;;;;;;13.00;5.90;;;;;;;;;;4973109;28;20425;-88
2023/04/27 07:31:03;;;;;;;9.57;5.20;;;;;;;;;;4981841;28;20037;-89
2023/04/27 07:33:29;;;;;;;11.15;5.50;;;;;;;;;;4981724;28;20026;-88
2023/04/27 07:35:55;;;;;;;10.55;4.95;;;;;;;;;;4981537;28;20019;-88
2023/04/27 07:38:22;;;;;;;11.13;5.70;;;;;;;;;;4975337;28;20035;-88
2023/04/27 07:40:48;;;;;;;10.23;5.10;;;;;;;;;;4980141;28;20034;-88
2023/04/27 07:43:15;;;;;;;8.10;3.78;;;;;;;;;;4970292;28;20471;-90
2023/04/27 07:45:41;;;;;;;8.40;3.65;;;;;;;;;;4964461;28;20030;-89
2023/04/27 07:48:07;;;;;;;8.43;3.05;;;;;;;;;;4967970;28;20129;-87
2023/04/27 07:51:07;;;;;;;7.57;3.45;;;;;;;;;;4980248;28;20413;-88
2023/04/27 07:53:35;;;;;;;7.10;2.65;;;;;;;;;;4986290;28;20029;-89
2023/04/27 07:56:02;;;;;;;5.53;2.47;;;;;;;;;;4996144;28;20037;-91
2023/04/27 07:58:28;;;;;;;4.20;2.63;;;;;;;;;;4963962;28;20101;-89
2023/04/27 08:00:55;;;;;;;8.57;3.05;;;;;;;;;;4962780;28;20038;-89
2023/04/27 08:03:21;;;;;;;8.90;2.75;;;;;;;;;;4980799;28;20030;-89
2023/04/27 08:05:47;;;;;;;5.70;2.75;;;;;;;;;;4980758;28;20038;-88
2023/04/27 08:08:13;;;;;;;7.60;2.80;;;;;;;;;;4980721;28;20035;-88
2023/04/27 08:10:41;;;;;;;8.88;3.03;;;;;;;;;;4964113;28;20022;-88
2023/04/27 08:13:08;;;;;;;9.80;3.05;;;;;;;;;;4963382;28;20178;-88
2023/04/27 08:15:34;;;;;;;4.10;2.08;;;;;;;;;;4986916;28;20033;-92
2023/04/27 08:18:00;;;;;;;7.25;2.78;;;;;;;;;;5000055;28;20069;-89
2023/04/27 08:20:27;;;;;;;7.82;3.42;;;;;;;;;;4974474;28;20045;-89
2023/04/27 08:22:53;;;;;;;4.65;2.95;;;;;;;;;;4964186;28;20034;-88
2023/04/27 08:25:20;;;;;;;6.07;3.10;;;;;;;;;;4980788;28;20525;-87
2023/04/27 08:27:46;;;;;;;8.07;3.17;;;;;;;;;;4992119;28;20400;-90
2023/04/27 08:30:12;;;;;;;11.15;3.22;;;;;;;;;;4981060;28;20026;-90
2023/04/27 08:32:38;;;;;;;11.38;3.65;;;;;;;;;;4982880;28;20023;-90
2023/04/27 08:35:06;;;;;;;6.97;3.28;;;;;;;;;;4982198;28;20034;-89
2023/04/27 08:37:32;;;;;;;7.47;3.30;;;;;;;;;;5000035;28;20030;-91
2023/04/27 08:39:58;;;;;;;9.43;3.33;;;;;;;;;;5000052;28;20018;-91
2023/04/27 08:42:24;;;;;;;6.45;2.58;;;;;;;;;;4999939;28;20065;-91
2023/04/27 08:44:50;;;;;;;7.03;2.60;;;;;;;;;;4999689;28;20050;-90
2023/04/27 08:47:17;;;;;;;6.38;2.80;;;;;;;;;;4999646;28;20018;-91
2023/04/27 08:49:43;;;;;;;8.98;3.00;;;;;;;;;;4982222;28;20129;-91
2023/04/27 08:52:13;;;;;;;4.45;2.08;;;;;;;;;;4982028;28;20109;-93
2023/04/27 08:54:40;;;;;;;5.43;2.10;;;;;;;;;;4982556;28;20022;-92
2023/04/27 08:57:09;;;;;;;5.65;2.80;;;;;;;;;;4999652;28;20030;-92
2023/04/27 08:59:36;;;;;;;8.48;2.60;;;;;;;;;;4999730;28;20046;-91
2023/04/27 09:02:03;;;;;;;7.40;3.17;;;;;;;;;;4982410;28;20026;-92
2023/04/27 09:04:38;;;;;;;6.85;2.58;;;;;;;;;;4999682;28;20026;-92
2023/04/27 09:07:31;;;;;;;7.07;2.97;;;;;;;;;;4999404;28;20022;-91
2023/04/27 09:09:57;;;;;;;;;;;;;;;;;;4997149;28;20034;-91
2023/04/27 09:12:23;;;;;;;7.95;2.60;;;;;;;;;;4999406;28;20315;-90
2023/04/27 09:14:56;;;;;;;6.68;2.50;;;;;;;;;;4999062;28;20301;-90
2023/04/27 09:17:26;;;;;;;4.35;2.35;;;;;;;;;;4999225;28;20030;-91
2023/04/27 09:19:52;;;;;;;4.97;2.63;;;;;;;;;;4982386;28;20065;-91
2023/04/27 09:22:18;;;;;;;5.65;2.60;;;;;;;;;;4981822;28;20086;-91
2023/04/27 09:24:51;;;;;;;10.88;3.60;;;;;;;;;;4981795;28;20026;-91
2023/04/27 09:27:21;;;;;;;6.60;2.75;;;;;;;;;;4981503;28;20058;-92
2023/04/27 09:29:47;;;;;;;5.05;2.65;;;;;;;;;;4981403;28;20451;-89
2023/04/27 09:32:17;;;;;;;5.45;2.80;;;;;;;;;;4998943;28;20113;-90
2023/04/27 09:34:44;;;;;;;4.88;2.10;;;;;;;;;;4980657;28;20031;-89
2023/04/27 09:37:10;;;;;;;8.50;3.35;;;;;;;;;;4987916;28;20034;-90
2023/04/27 09:39:36;;;;;;;9.10;2.50;;;;;;;;;;4999295;28;20110;-90
2023/04/27 09:42:06;;;;;;;7.55;2.90;;;;;;;;;;4973032;28;20424;-91
2023/04/27 09:44:32;;;;;;;7.80;2.88;;;;;;;;;;4997072;28;20057;-90
2023/04/27 09:46:59;;;;;;;7.80;2.88;;;;;;;;;;4979370;28;20026;-87
2023/04/27 09:49:34;;;;;;;7.88;3.63;;;;;;;;;;4995767;28;20425;-85
2023/04/27 09:52:00;;;;;;;10.75;3.40;;;;;;;;;;4981474;28;20089;-91
2023/04/27 09:54:29;;;;;;;6.03;2.90;;;;;;;;;;4991640;28;20321;-90
2023/04/27 09:57:10;;;;;;;8.43;2.88;;;;;;;;;;4978924;28;20077;-90
2023/04/27 09:59:52;;;;;;;6.05;3.03;;;;;;;;;;4978768;28;20469;-89
2023/04/27 10:02:19;;;;;;;10.20;3.03;;;;;;;;;;4978404;28;20031;-89
2023/04/27 10:05:02;;;;;;;20.67;3.25;;;;;;;;;;4977582;28;20034;-90
2023/04/27 10:07:28;;;;;;;7.60;3.35;;;;;;;;;;4979701;28;20037;-89
2023/04/27 10:09:54;;;;;;;13.55;2.80;;;;;;;;;;4962679;28;20457;-88
2023/04/27 10:12:22;;;;;;;38.78;4.57;;;;;;;;;;4988430;28;20414;-90
2023/04/27 10:14:55;;;;;;;7.50;3.10;;;;;;;;;;4995292;28;20034;-88
2023/04/27 10:17:25;;;;;;;17.25;3.88;;;;;;;;;;4980483;28;20054;-88
2023/04/27 10:20:10;;;;;;;23.50;3.38;;;;;;;;;;4978833;28;20026;-88
2023/04/27 10:22:38;;;;;;;7.65;3.10;;;;;;;;;;4977760;28;20026;-88
2023/04/27 10:25:12;;;;;;;11.38;2.50;;;;;;;;;;4977888;28;20023;-88
2023/04/27 10:27:40;;;;;;;10.27;2.55;;;;;;;;;;4977218;28;20034;-88
2023/04/27 10:30:12;;;;;;;10.32;2.83;;;;;;;;;;4978924;28;20027;-89
2023/04/27 10:32:50;;;;;;;10.23;2.92;;;;;;;;;;4977685;28;20031;-88
2023/04/27 10:35:16;;;;;;;8.30;2.58;;;;;;;;;;4978786;28;20405;-88
2023/04/27 10:37:43;;;;;;;18.58;3.13;;;;;;;;;;4978562;28;20062;-88
2023/04/27 10:40:10;;;;;;;13.07;2.55;;;;;;;;;;4977647;28;20034;-88
2023/04/27 10:42:36;;;;;;;8.80;2.70;;;;;;;;;;4977776;28;20027;-87
2023/04/27 10:45:03;;;;;;;4.53;2.40;;;;;;;;;;4977570;28;20432;-88
2023/04/27 10:47:39;;;;;;;5.30;2.35;;;;;;;;;;4978791;28;20023;-86
2023/04/27 10:50:06;;;;;;;4.25;2.47;;;;;;;;;;4978239;28;20414;-91
2023/04/27 10:55:36;;;;;;;7.03;2.50;;;;;;;;;;4983988;28;20162;-88
2023/04/27 10:58:03;;;;;;;12.38;2.58;;;;;;;;;;4978453;28;20034;-88
2023/04/27 11:00:33;;;;;;;6.32;2.50;;;;;;;;;;4978559;28;20117;-88
2023/04/27 11:03:30;;;;;;;5.35;2.42;;;;;;;;;;4978351;28;20039;-88
2023/04/27 11:15:06;;;;;;;5.68;2.20;;;;;;;;;;4902699;29;20434;-87
2023/04/27 11:17:32;;;;;;;4.70;2.13;;;;;;;;;;4918713;29;20036;-88
2023/04/27 11:19:58;;;;;;;7.90;2.58;;;;;;;;;;4889419;29;20464;-89
2023/04/27 11:22:24;;;;;;;9.38;2.67;;;;;;;;;;4885041;29;20417;-87
2023/04/27 11:24:51;;;;;;;8.25;2.90;;;;;;;;;;4885078;29;20036;-87
2023/04/27 11:27:18;;;;;;;8.10;2.35;;;;;;;;;;4884804;29;20321;-88
2023/04/27 11:29:44;;;;;;;7.95;2.58;;;;;;;;;;4884904;29;20101;-87
2023/04/27 11:32:20;;;;;;;5.28;2.42;;;;;;;;;;4885125;29;20035;-87
2023/04/27 11:34:50;;;;;;;4.80;2.20;;;;;;;;;;4891210;29;20487;-88
2023/04/27 11:37:22;;;;;;;8.73;2.50;;;;;;;;;;4903670;29;20050;-90
2023/04/27 11:39:48;;;;;;;5.03;1.90;;;;;;;;;;4903738;29;20104;-89
2023/04/27 11:42:19;;;;;;;8.50;2.50;;;;;;;;;;4934076;28;20035;-90
2023/04/27 11:44:52;;;;;;;5.60;2.10;;;;;;;;;;4964402;28;20341;-90
2023/04/27 11:47:18;;;;;;;8.30;2.58;;;;;;;;;;4981882;28;20078;-90
2023/04/27 11:49:52;;;;;;;5.72;2.60;;;;;;;;;;4981812;28;20027;-90
2023/04/27 11:52:55;;;;;;;6.97;2.72;;;;;;;;;;4964152;28;20449;-86
2023/04/27 11:55:21;;;;;;;4.75;1.90;;;;;;;;;;4981652;28;20082;-89
2023/04/27 11:57:48;;;;;;;5.35;1.92;;;;;;;;;;4981085;28;20030;-89
2023/04/27 12:00:15;;;;;;;4.97;2.40;;;;;;;;;;4964164;28;20086;-90
2023/04/27 12:02:42;;;;;;;5.47;2.00;;;;;;;;;;4964182;28;20019;-90
2023/04/27 12:05:08;;;;;;;5.25;1.88;;;;;;;;;;4963841;28;20039;-90
2023/04/27 12:07:35;;;;;;;4.93;1.95;;;;;;;;;;4981302;28;20019;-90
2023/04/27 12:10:01;;;;;;;6.32;2.65;;;;;;;;;;4963533;28;20035;-90
2023/04/27 12:12:27;;;;;;;4.35;2.20;;;;;;;;;;4963319;28;20043;-90
2023/04/27 12:14:53;;;;;;;5.47;2.20;;;;;;;;;;4980630;28;20413;-86
2023/04/27 12:17:20;;;;;;;7.47;2.20;;;;;;;;;;4980581;28;20031;-90
2023/04/27 12:19:46;;;;;;;7.95;2.22;;;;;;;;;;4978879;28;20026;-88
2023/04/27 12:22:12;;;;;;;5.30;2.08;;;;;;;;;;4970680;28;20038;-91
2023/04/27 12:24:38;;;;;;;3.75;2.00;;;;;;;;;;4980819;28;20027;-89
2023/04/27 12:27:05;;;;;;;6.13;2.20;;;;;;;;;;4979472;28;20030;-90
2023/04/27 12:29:31;;;;;;;5.53;2.53;;;;;;;;;;4979528;28;20050;-91
2023/04/27 12:32:00;;;;;;;5.68;2.50;;;;;;;;;;4979949;28;20031;-89
2023/04/27 12:34:30;;;;;;;7.43;3.03;;;;;;;;;;4979687;28;20365;-91
2023/04/27 12:36:56;;;;;;;5.97;2.35;;;;;;;;;;4980482;28;20034;-91
2023/04/27 12:39:26;;;;;;;8.70;2.58;;;;;;;;;;4980451;28;20113;-92
2023/04/27 12:41:53;;;;;;;6.05;2.20;;;;;;;;;;4979541;28;20031;-91
2023/04/27 12:44:20;;;;;;;13.15;2.92;;;;;;;;;;4980071;28;20031;-92
2023/04/27 12:46:46;;;;;;;7.93;2.00;;;;;;;;;;4979454;28;20018;-91
2023/04/27 12:49:13;;;;;;;5.55;2.30;;;;;;;;;;4980337;28;20101;-91
2023/04/27 12:51:39;;;;;;;11.27;2.80;;;;;;;;;;4979409;28;20038;-92
2023/04/27 12:54:06;;;;;;;5.47;2.35;;;;;;;;;;4979288;28;20026;-91
2023/04/27 12:56:32;;;;;;;5.70;2.30;;;;;;;;;;4979374;28;20027;-93
2023/04/27 12:58:59;;;;;;;5.70;2.10;;;;;;;;;;4980691;28;20023;-90
2023/04/27 13:01:26;;;;;;;6.75;2.03;;;;;;;;;;4980009;28;20117;-91
2023/04/27 13:03:53;;;;;;;5.60;2.20;;;;;;;;;;4979269;28;20022;-91
2023/04/27 13:06:19;;;;;;;5.35;2.60;;;;;;;;;;4979015;28;20133;-90
2023/04/27 13:08:45;;;;;;;6.63;2.22;;;;;;;;;;4979799;28;20034;-91
2023/04/27 13:11:11;;;;;;;5.88;2.03;;;;;;;;;;4979103;28;20437;-90
2023/04/27 13:13:37;;;;;;;6.78;2.20;;;;;;;;;;4979020;28;20025;-90
2023/04/27 13:16:04;;;;;;;6.15;1.88;;;;;;;;;;4978993;28;20030;-91
2023/04/27 13:18:30;;;;;;;6.93;3.40;;;;;;;;;;4979717;28;20508;-88
2023/04/27 13:20:56;;;;;;;4.93;2.17;;;;;;;;;;4979886;28;20098;-93
2023/04/27 13:23:23;;;;;;;5.30;2.08;;;;;;;;;;4978874;28;20027;-91
2023/04/27 13:25:49;;;;;;;6.68;2.15;;;;;;;;;;4978670;28;20038;-92
2023/04/27 13:28:15;;;;;;;5.03;2.33;;;;;;;;;;4979414;28;20430;-91
2023/04/27 13:30:41;;;;;;;7.10;2.05;;;;;;;;;;4974809;28;20042;-92
2023/04/27 13:33:11;;;;;;;6.75;2.65;;;;;;;;;;4948127;28;20033;-92
2023/04/27 13:35:37;;;;;;;18.38;8.90;;;;;;;;;;4978314;28;20027;-92
2023/04/27 13:38:35;;;;;;;4.47;2.25;;;;;;;;;;4979462;28;20027;-91
2023/04/27 13:41:01;;;;;;;7.68;2.20;;;;;;;;;;4979877;28;20031;-92
2023/04/27 13:43:27;;;;;;;3.20;1.60;;;;;;;;;;4980508;28;20413;-93
2023/04/27 13:45:53;;;;;;;8.98;3.72;;;;;;;;;;4978672;28;20126;-92
2023/04/27 13:48:20;;;;;;;9.02;3.40;;;;;;;;;;4979672;28;20038;-91
2023/04/27 13:50:46;;;;;;;8.30;2.65;;;;;;;;;;4963711;28;20023;-90
2023/04/27 13:53:12;;;;;;;6.57;1.90;;;;;;;;;;4942994;29;20031;-91
2023/04/27 13:55:38;;;;;;;7.13;2.20;;;;;;;;;;4950287;28;20030;-90
2023/04/27 13:58:04;;;;;;;9.43;2.53;;;;;;;;;;4978074;28;20084;-91
2023/04/27 14:00:32;;;;;;;4.55;2.10;;;;;;;;;;4977978;28;20031;-91
2023/04/27 14:02:59;;;;;;;5.43;2.08;;;;;;;;;;4979277;28;20065;-90
2023/04/27 14:05:25;;;;;;;5.82;2.00;;;;;;;;;;4979254;28;20361;-91
2023/04/27 14:07:52;;;;;;;4.90;2.10;;;;;;;;;;4973664;28;20132;-91
2023/04/27 14:10:18;;;;;;;3.22;2.28;;;;;;;;;;4998199;28;20034;-90
2023/04/27 14:12:45;;;;;;;5.80;2.35;;;;;;;;;;4998262;28;20033;-91
2023/04/27 14:15:11;;;;;;;7.13;2.10;;;;;;;;;;4981261;28;20069;-92
2023/04/27 14:17:37;;;;;;;6.63;2.60;;;;;;;;;;4998343;28;20029;-91
2023/04/27 14:20:06;;;;;;;6.38;2.53;;;;;;;;;;4980786;28;20025;-93
2023/04/27 14:25:37;;;;;;;5.15;2.20;;;;;;;;;;4998176;28;20072;-92
2023/04/27 14:28:04;;;;;;;6.03;2.08;;;;;;;;;;4985690;28;20086;-92
2023/04/27 14:30:34;;;;;;;7.88;2.00;;;;;;;;;;4961958;28;20027;-85
2023/04/27 14:33:01;;;;;;;6.38;2.75;;;;;;;;;;4957387;29;20114;-88
2023/04/27 14:35:27;;;;;;;14.02;2.95;;;;;;;;;;4959715;29;20394;-93
2023/04/27 14:37:55;;;;;;;5.25;2.10;;;;;;;;;;4951036;29;20023;-92
2023/04/27 14:40:21;;;;;;;4.72;2.42;;;;;;;;;;4940520;29;20067;-92
2023/04/27 14:42:47;;;;;;;8.93;2.38;;;;;;;;;;4940615;29;20292;-93
2023/04/27 14:45:16;;;;;;;6.10;2.55;;;;;;;;;;4940653;29;20032;-90
2023/04/27 14:47:42;;;;;;;10.23;3.10;;;;;;;;;;4944998;28;20329;-92
2023/04/27 14:50:10;;;;;;;6.85;2.50;;;;;;;;;;4944689;29;20034;-92
2023/04/27 14:52:36;;;;;;;5.43;2.30;;;;;;;;;;4962757;29;20028;-94
2023/04/27 14:55:02;;;;;;;4.35;2.45;;;;;;;;;;4943169;29;20019;-93
2023/04/27 14:57:28;;;;;;;14.25;3.28;;;;;;;;;;4944123;29;20020;-92
2023/04/27 14:59:55;;;;;;;6.85;2.10;;;;;;;;;;4943792;29;20040;-94
2023/04/27 15:02:21;;;;;;;6.60;2.25;;;;;;;;;;4943774;29;20095;-86
2023/04/27 15:04:47;;;;;;;5.88;2.28;;;;;;;;;;4943787;29;20028;-87
2023/04/27 15:07:14;;;;;;;10.27;2.50;;;;;;;;;;4943666;29;20095;-86
2023/04/27 15:09:40;;;;;;;7.63;2.47;;;;;;;;;;4943486;29;20036;-86
2023/04/27 15:12:06;;;;;;;10.13;2.33;;;;;;;;;;4943587;29;20478;-86
2023/04/27 15:14:33;;;;;;;9.18;2.67;;;;;;;;;;4942693;29;20020;-86